Time;durP1;ratioP1;P1;durP2;ratioP2;P2;SDS_P1;SDS_P2;PMS_P1;PMS_P2;Temp;Humidity;BMP_temperature;BMP_pressure;BME280_temperature;BME280_humidity;BME280_pressure;Samples;Min_cycle;Max_cycle;Signal;HPM_P1;HPM_P2
2022/10/25 00:02:20;;;;;;;14.90;7.60;;;;;;;15.08;80.51;100142.52;100645;1289;109522;-57
2022/10/25 00:04:48;;;;;;;15.90;7.90;;;;;;;15.07;80.55;100141.84;100672;1296;139470;-58
2022/10/25 00:07:16;;;;;;;13.20;7.50;;;;;;;15.08;80.57;100137.14;100701;1284;95568;-57
2022/10/25 00:09:43;;;;;;;13.60;8.20;;;;;;;15.09;80.46;100140.86;100661;1289;109279;-58
2022/10/25 00:12:11;;;;;;;13.90;7.40;;;;;;;15.09;80.55;100143.02;100426;1298;214991;-58
2022/10/25 00:14:39;;;;;;;13.30;8.10;;;;;;;15.04;80.57;100139.46;100720;1284;107757;-57
2022/10/25 00:17:07;;;;;;;13.30;8.10;;;;;;;15.05;80.59;100140.86;100574;1284;140322;-58
2022/10/25 00:19:35;;;;;;;13.40;7.90;;;;;;;15.05;80.59;100139.63;100944;1284;95244;-57
2022/10/25 00:22:03;;;;;;;14.00;7.80;;;;;;;15.04;80.64;100145.21;100716;1289;111086;-58
2022/10/25 00:24:30;;;;;;;15.30;8.80;;;;;;;15.04;80.68;100142.31;100621;1287;139131;-58
2022/10/25 00:26:58;;;;;;;12.50;7.90;;;;;;;15.00;80.72;100141.29;100678;1283;109037;-58
2022/10/25 00:29:26;;;;;;;14.20;7.70;;;;;;;14.98;80.86;100148.56;100612;1283;139808;-58
2022/10/25 00:31:53;;;;;;;14.10;8.10;;;;;;;14.96;80.91;100151.13;100622;1284;95354;-58
2022/10/25 00:34:21;;;;;;;14.00;8.00;;;;;;;14.95;80.99;100148.16;100681;1284;109047;-58
2022/10/25 00:36:49;;;;;;;14.90;9.00;;;;;;;14.96;81.02;100150.80;100608;1284;139783;-59
2022/10/25 00:39:17;;;;;;;14.80;8.40;;;;;;;14.97;80.98;100157.54;100723;1289;109145;-58
2022/10/25 00:41:45;;;;;;;13.80;8.30;;;;;;;14.95;80.94;100165.31;100552;1289;139905;-58
2022/10/25 00:44:34;;;;;;;14.70;8.40;;;;;;;14.95;80.94;100157.27;100709;1291;95573;-58
2022/10/25 00:47:05;;;;;;;15.00;8.50;;;;;;;14.98;80.89;100156.23;100610;1287;139227;-58
2022/10/25 00:49:33;;;;;;;14.40;8.30;;;;;;;14.98;80.81;100155.30;100720;1291;97797;-58
2022/10/25 00:52:06;;;;;;;14.30;8.50;;;;;;;15.00;80.88;100146.31;100652;1288;108412;-59
2022/10/25 00:54:42;;;;;;;15.20;8.40;;;;;;;14.99;80.83;100144.55;100619;1298;139603;-59
2022/10/25 00:57:26;;;;;;;16.60;9.20;;;;;;;14.94;80.87;100144.61;100745;1284;95269;-58
2022/10/25 00:59:54;;;;;;;14.20;9.10;;;;;;;14.90;81.04;100146.24;100555;1284;139454;-58
2022/10/25 01:02:22;;;;;;;15.30;8.50;;;;;;;14.85;81.29;100150.95;100700;1284;98573;-58
2022/10/25 01:04:51;;;;;;;16.00;8.60;;;;;;;14.81;81.64;100148.98;100742;1291;139267;-58
2022/10/25 01:07:19;;;;;;;13.20;8.10;;;;;;;14.82;81.67;100141.44;100749;1287;95717;-57
2022/10/25 01:09:47;;;;;;;13.90;8.30;;;;;;;14.84;81.53;100138.81;100652;1310;96563;-56
2022/10/25 01:12:15;;;;;;;14.80;8.50;;;;;;;14.83;81.33;100150.32;100535;1284;139540;-58
2022/10/25 01:14:47;;;;;;;16.50;8.50;;;;;;;14.74;81.47;100149.88;100654;1288;98480;-57
2022/10/25 01:17:26;;;;;;;13.20;8.40;;;;;;;14.63;81.68;100149.98;100561;1284;138960;-57
2022/10/25 01:20:22;;;;;;;14.70;8.90;;;;;;;14.52;81.91;100155.86;100654;1291;96162;-57
2022/10/25 01:23:02;;;;;;;14.60;9.30;;;;;;;14.44;82.52;100154.46;100694;1291;139108;-57
2022/10/25 01:25:30;;;;;;;14.10;9.40;;;;;;;14.40;83.03;100152.51;100694;1284;109348;-57
2022/10/25 01:27:58;;;;;;;15.80;9.10;;;;;;;14.45;82.85;100157.24;100686;1289;98941;-57
2022/10/25 01:30:31;;;;;;;14.70;9.30;;;;;;;14.44;82.96;100160.52;100585;1288;139025;-58
2022/10/25 01:33:08;;;;;;;16.20;9.40;;;;;;;14.39;83.14;100169.67;100733;1298;95289;-57
2022/10/25 01:36:10;;;;;;;13.80;9.10;;;;;;;14.32;83.27;100172.49;100256;1287;139625;-57
2022/10/25 01:38:47;;;;;;;14.70;8.90;;;;;;;14.27;83.29;100171.48;100668;1284;108171;-58
2022/10/25 01:41:17;;;;;;;15.30;9.00;;;;;;;14.28;83.67;100169.48;100563;1287;139216;-58
2022/10/25 01:43:54;;;;;;;15.60;9.10;;;;;;;14.31;83.63;100166.09;100822;1291;109648;-58
2022/10/25 01:46:28;;;;;;;15.50;8.60;;;;;;;14.34;83.74;100170.81;100748;1283;95242;-57
2022/10/25 01:49:03;;;;;;;14.70;8.90;;;;;;;14.32;83.49;100169.27;100570;1284;142070;-57
2022/10/25 01:51:35;;;;;;;15.10;9.10;;;;;;;14.28;84.01;100163.75;100718;1291;108990;-56
2022/10/25 01:54:18;;;;;;;14.40;9.00;;;;;;;14.35;84.02;100160.55;100835;1284;139823;-57
2022/10/25 01:56:52;;;;;;;13.00;8.40;;;;;;;14.34;83.48;100151.34;100749;1284;108652;-57
2022/10/25 01:59:25;;;;;;;13.50;8.50;;;;;;;14.21;84.13;100158.34;100768;1284;142085;-56
2022/10/25 02:02:11;;;;;;;15.20;9.20;;;;;;;14.13;84.52;100155.85;100722;1284;95782;-57
2022/10/25 02:04:42;;;;;;;14.90;9.10;;;;;;;14.11;84.96;100157.92;100669;1291;108955;-57
2022/10/25 02:07:19;;;;;;;15.30;9.00;;;;;;;14.17;84.75;100164.98;100694;1291;98910;-56
2022/10/25 02:10:08;;;;;;;16.20;8.70;;;;;;;14.18;84.63;100158.13;100658;1289;109032;-57
2022/10/25 02:12:57;;;;;;;13.30;8.10;;;;;;;14.07;84.91;100162.70;100548;1292;139538;-57
2022/10/25 02:16:01;;;;;;;13.80;8.60;;;;;;;14.03;85.33;100156.66;100742;1290;95707;-57
2022/10/25 02:18:34;;;;;;;14.30;8.70;;;;;;;13.99;85.70;100156.66;100222;1292;138982;-57
2022/10/25 02:21:04;;;;;;;14.10;8.60;;;;;;;13.99;85.93;100152.19;100828;1298;97825;-58
2022/10/25 02:23:35;;;;;;;14.40;8.50;;;;;;;13.97;86.26;100154.95;100767;1291;139123;-58
2022/10/25 02:26:06;;;;;;;13.70;8.80;;;;;;;13.95;86.41;100150.94;100805;1298;95388;-58
2022/10/25 02:28:37;;;;;;;13.80;8.80;;;;;;;13.95;86.52;100153.09;100675;1283;95684;-58
2022/10/25 02:31:09;;;;;;;14.40;9.10;;;;;;;13.93;86.55;100149.06;100782;1284;138690;-65
2022/10/25 02:33:37;;;;;;;14.60;8.80;;;;;;;13.93;86.54;100145.86;100755;1285;98408;-64
2022/10/25 02:36:11;;;;;;;16.90;8.90;;;;;;;13.92;86.74;100141.96;100561;1312;139565;-63
2022/10/25 02:38:40;;;;;;;14.20;9.60;;;;;;;13.92;86.73;100138.93;100687;1289;95761;-62
2022/10/25 02:41:09;;;;;;;15.10;9.30;;;;;;;13.93;86.85;100141.03;100700;1291;140199;-64
2022/10/25 02:43:36;;;;;;;15.90;9.70;;;;;;;13.94;86.76;100145.44;100668;1290;110422;-64
2022/10/25 02:46:13;;;;;;;14.30;9.20;;;;;;;13.98;87.03;100149.54;100636;1288;97597;-64
2022/10/25 02:48:41;;;;;;;14.70;9.20;;;;;;;14.09;86.87;100153.02;100553;1288;139103;-65
2022/10/25 02:51:10;;;;;;;15.60;9.30;;;;;;;14.15;86.23;100149.32;100706;1287;95934;-64
2022/10/25 02:53:39;;;;;;;13.70;8.30;;;;;;;14.16;85.76;100148.05;100641;1287;139098;-66
2022/10/25 02:56:10;;;;;;;15.70;9.40;;;;;;;14.12;85.77;100147.48;100714;1292;110214;-64
2022/10/25 02:58:40;;;;;;;16.30;9.40;;;;;;;14.12;85.84;100150.88;100665;1288;98859;-64
2022/10/25 03:01:09;;;;;;;15.40;9.20;;;;;;;14.12;85.64;100153.23;100623;1284;108252;-62
2022/10/25 03:03:37;;;;;;;14.70;9.70;;;;;;;14.08;85.49;100156.28;100721;1284;95827;-65
2022/10/25 03:06:06;;;;;;;15.00;9.20;;;;;;;14.07;85.56;100152.91;100680;1291;139882;-64
2022/10/25 03:08:34;;;;;;;16.00;10.00;;;;;;;14.09;85.32;100151.23;100735;1291;109432;-62
2022/10/25 03:11:03;;;;;;;16.40;9.30;;;;;;;14.09;85.01;100142.09;100609;1291;140053;-68
2022/10/25 03:13:31;;;;;;;17.00;11.00;;;;;;;14.04;84.64;100142.49;100607;1291;107692;-65
2022/10/25 03:15:59;;;;;;;16.60;10.30;;;;;;;13.97;85.01;100138.86;100620;1291;95249;-62
2022/10/25 03:18:27;;;;;;;14.90;9.30;;;;;;;13.93;85.12;100133.15;100734;1298;139694;-66
2022/10/25 03:21:00;;;;;;;16.00;9.60;;;;;;;13.87;85.29;100129.69;100735;1287;109483;-66
2022/10/25 03:23:29;;;;;;;14.00;9.30;;;;;;;13.86;85.90;100132.77;100569;1287;139056;-65
2022/10/25 03:25:59;;;;;;;14.30;9.50;;;;;;;13.91;86.02;100143.46;100637;1283;108338;-65
2022/10/25 03:28:28;;;;;;;14.60;9.40;;;;;;;13.97;85.73;100139.41;100732;1291;98127;-65
2022/10/25 03:30:57;;;;;;;16.20;9.70;;;;;;;14.01;85.50;100144.42;100905;1290;139471;-65
2022/10/25 03:33:25;;;;;;;16.60;8.80;;;;;;;14.05;85.30;100139.06;100701;1290;108187;-64
2022/10/25 03:35:54;;;;;;;16.30;9.10;;;;;;;14.11;84.98;100139.16;100572;1296;139858;-65
2022/10/25 03:38:22;;;;;;;13.90;9.40;;;;;;;14.16;84.65;100140.36;100681;1283;107304;-65
2022/10/25 03:40:50;;;;;;;16.60;9.50;;;;;;;14.18;84.56;100141.33;100591;1290;139207;-66
2022/10/25 03:43:18;;;;;;;17.30;10.50;;;;;;;14.21;84.44;100140.47;100677;1290;95302;-64
2022/10/25 03:45:45;;;;;;;14.90;9.30;;;;;;;14.21;84.12;100141.04;100681;1284;107753;-65
2022/10/25 03:48:14;;;;;;;15.30;9.70;;;;;;;14.18;84.20;100141.50;100601;1287;139191;-64
2022/10/25 03:50:42;;;;;;;14.40;10.10;;;;;;;14.18;84.14;100140.27;100698;1284;107413;-65
2022/10/25 03:53:10;;;;;;;15.20;9.70;;;;;;;14.16;83.96;100135.73;100569;1291;139846;-65
2022/10/25 03:55:38;;;;;;;15.20;10.10;;;;;;;14.09;83.91;100134.23;100867;1290;95652;-66
2022/10/25 03:58:05;;;;;;;14.40;9.80;;;;;;;14.06;84.10;100131.51;100684;1284;108945;-66
2022/10/25 04:00:33;;;;;;;15.80;9.40;;;;;;;14.06;84.10;100130.80;100641;1284;140107;-66
2022/10/25 04:03:01;;;;;;;14.10;9.60;;;;;;;14.09;84.15;100131.77;100658;1284;108406;-67
2022/10/25 04:05:30;;;;;;;16.40;10.30;;;;;;;14.08;83.79;100126.29;100987;1291;139174;-66
2022/10/25 04:07:58;;;;;;;15.00;10.10;;;;;;;14.01;84.23;100132.83;100686;1283;96159;-66
2022/10/25 04:10:26;;;;;;;15.90;9.90;;;;;;;14.00;84.36;100132.85;100673;1291;109008;-65
2022/10/25 04:12:54;;;;;;;17.40;10.80;;;;;;;14.05;84.22;100133.20;100583;1287;139504;-65
2022/10/25 04:15:23;;;;;;;17.40;10.80;;;;;;;14.01;84.09;100123.70;100685;1284;110634;-65
2022/10/25 04:17:51;;;;;;;16.90;10.90;;;;;;;13.93;84.09;100122.66;100675;1284;139410;-65
2022/10/25 04:20:20;;;;;;;17.20;10.70;;;;;;;13.86;84.41;100124.72;100755;1291;95248;-66
2022/10/25 04:22:55;;;;;;;15.70;10.40;;;;;;;13.87;84.87;100123.80;100712;1298;139903;-67
2022/10/25 04:25:25;;;;;;;15.70;10.20;;;;;;;13.86;84.79;100125.79;100603;1284;98481;-64
2022/10/25 04:27:53;;;;;;;15.60;10.10;;;;;;;13.88;84.92;100127.88;100662;1284;106770;-65
2022/10/25 04:30:21;;;;;;;16.60;10.70;;;;;;;13.94;84.96;100130.64;100658;1287;139341;-65
2022/10/25 04:32:49;;;;;;;16.30;10.70;;;;;;;13.98;84.68;100134.05;100656;1287;95852;-65
2022/10/25 04:35:17;;;;;;;17.70;10.90;;;;;;;14.02;84.45;100132.40;100528;1284;139628;-66
2022/10/25 04:37:45;;;;;;;21.70;14.00;;;;;;;14.04;84.18;100125.73;100613;1291;98408;-64
2022/10/25 04:40:13;;;;;;;15.00;10.40;;;;;;;14.02;83.94;100123.88;100681;1287;108381;-65
2022/10/25 04:42:40;;;;;;;15.60;10.70;;;;;;;13.95;83.91;100118.46;100555;1291;139292;-63
2022/10/25 04:45:09;;;;;;;16.10;10.90;;;;;;;13.96;84.25;100118.79;100684;1291;95619;-62
2022/10/25 04:47:36;;;;;;;19.60;11.60;;;;;;;13.98;84.35;100122.09;100627;1287;139041;-65
2022/10/25 04:50:05;;;;;;;18.20;11.70;;;;;;;13.98;84.11;100126.34;100619;1284;99426;-65
2022/10/25 04:52:33;;;;;;;18.10;12.20;;;;;;;13.94;83.96;100120.46;100615;1287;107495;-64
2022/10/25 04:55:01;;;;;;;18.00;11.00;;;;;;;13.93;84.21;100119.80;100520;1298;139415;-65
2022/10/25 04:57:29;;;;;;;17.50;11.20;;;;;;;13.91;84.35;100122.92;100308;1290;98092;-67
2022/10/25 04:59:57;;;;;;;18.20;11.50;;;;;;;13.90;84.30;100123.69;100517;1288;139833;-63
2022/10/25 05:02:24;;;;;;;16.40;10.50;;;;;;;13.87;84.20;100124.35;100925;1287;98409;-65
2022/10/25 05:04:53;;;;;;;16.60;11.50;;;;;;;13.86;84.09;100123.64;101010;1283;139789;-64
2022/10/25 05:07:20;;;;;;;17.00;10.80;;;;;;;13.83;84.06;100127.02;100623;1287;96067;-64
2022/10/25 05:09:48;;;;;;;16.80;10.30;;;;;;;13.78;83.97;100128.33;100678;1284;95696;-64
2022/10/25 05:12:16;;;;;;;15.40;11.20;;;;;;;13.77;84.17;100137.11;100542;1284;139871;-65
2022/10/25 05:14:44;;;;;;;16.00;11.20;;;;;;;13.75;84.04;100137.71;100655;1284;99418;-65
2022/10/25 05:17:11;;;;;;;17.10;11.70;;;;;;;13.71;84.06;100134.33;100540;1292;139545;-65
2022/10/25 05:19:39;;;;;;;17.30;11.30;;;;;;;13.66;84.11;100135.42;100768;1292;96183;-65
2022/10/25 05:22:07;;;;;;;22.10;11.40;;;;;;;13.63;84.09;100130.04;100697;1291;95714;-65
2022/10/25 05:24:35;;;;;;;17.60;11.60;;;;;;;13.61;84.03;100134.92;100621;1306;139748;-66
2022/10/25 05:27:03;;;;;;;18.40;12.30;;;;;;;13.62;84.56;100141.32;100657;1291;98597;-66
2022/10/25 05:29:31;;;;;;;18.40;13.20;;;;;;;13.63;84.49;100142.71;100498;1288;139896;-63
2022/10/25 05:31:59;;;;;;;21.10;13.80;;;;;;;13.63;84.49;100151.27;100536;1290;95259;-67
2022/10/25 05:38:27;;;;;;;20.00;14.10;;;;;;;13.61;84.44;100150.63;101919;1277;108374;-75
2022/10/25 05:40:57;;;;;;;20.00;13.10;;;;;;;13.60;84.68;100151.36;101035;1290;139431;-77
2022/10/25 05:43:26;;;;;;;18.30;12.60;;;;;;;13.62;84.62;100153.42;101014;1293;107278;-76
2022/10/25 05:46:03;;;;;;;17.50;12.00;;;;;;;13.66;84.73;100154.18;100916;1312;95734;-77
2022/10/25 05:48:31;;;;;;;17.90;12.00;;;;;;;13.71;84.61;100161.63;100787;1301;139109;-77
2022/10/25 05:51:17;;;;;;;17.40;11.90;;;;;;;13.74;84.61;100165.07;100831;1304;108057;-78
2022/10/25 05:54:06;;;;;;;18.10;11.20;;;;;;;13.79;84.27;100169.11;100732;1290;139217;-77
2022/10/25 05:56:35;;;;;;;18.20;12.20;;;;;;;13.78;84.26;100172.58;100939;1284;107484;-77
2022/10/25 05:59:11;;;;;;;17.50;12.00;;;;;;;13.80;84.19;100169.98;100674;1286;139719;-77
2022/10/25 06:01:44;;;;;;;17.80;11.80;;;;;;;13.76;84.00;100171.57;100663;1303;95641;-77
2022/10/25 06:04:13;;;;;;;16.90;11.80;;;;;;;13.68;84.11;100172.79;100817;1291;108365;-77
2022/10/25 06:06:43;;;;;;;19.10;12.20;;;;;;;13.67;84.11;100172.32;100835;1298;139430;-78
2022/10/25 06:09:12;;;;;;;18.50;12.50;;;;;;;13.67;84.18;100176.43;100858;1291;106859;-78
2022/10/25 06:11:40;;;;;;;17.90;11.70;;;;;;;13.69;83.98;100179.34;101036;1291;139157;-78
2022/10/25 06:14:09;;;;;;;18.90;11.10;;;;;;;13.75;83.83;100188.02;100744;1294;96171;-77
2022/10/25 06:16:37;;;;;;;17.90;12.70;;;;;;;13.78;83.46;100192.20;100855;1291;109025;-76
2022/10/25 06:19:06;;;;;;;18.70;12.80;;;;;;;13.79;83.56;100189.11;100675;1284;139354;-78
2022/10/25 06:21:33;;;;;;;16.60;12.20;;;;;;;13.83;83.53;100189.45;100801;1291;107635;-76
2022/10/25 06:24:03;;;;;;;17.50;11.80;;;;;;;13.89;83.28;100189.73;100675;1313;139552;-75
2022/10/25 06:26:31;;;;;;;18.40;12.90;;;;;;;13.91;83.29;100188.96;100811;1294;95361;-77
2022/10/25 06:29:01;;;;;;;16.90;11.90;;;;;;;13.92;83.16;100191.93;100682;1294;139326;-77
2022/10/25 06:31:31;;;;;;;18.90;13.00;;;;;;;13.96;83.13;100192.85;100905;1294;97094;-76
2022/10/25 06:34:00;;;;;;;18.10;12.40;;;;;;;13.98;82.88;100188.48;100737;1287;107846;-77
2022/10/25 06:36:30;;;;;;;17.50;12.40;;;;;;;13.94;83.04;100186.85;100793;1292;139499;-77
2022/10/25 06:38:58;;;;;;;17.60;12.10;;;;;;;13.90;83.33;100187.02;101036;1290;95864;-77
2022/10/25 06:41:35;;;;;;;18.20;11.70;;;;;;;13.95;83.43;100182.38;100819;1287;139238;-78
2022/10/25 06:44:06;;;;;;;16.90;12.00;;;;;;;13.98;83.41;100181.00;101014;1304;97082;-77
2022/10/25 06:46:37;;;;;;;17.50;12.10;;;;;;;13.98;83.53;100179.36;100986;1287;107106;-77
2022/10/25 06:49:25;;;;;;;16.80;11.60;;;;;;;14.02;83.68;100182.61;101119;1291;96178;-78
2022/10/25 06:51:53;;;;;;;18.90;12.50;;;;;;;14.05;83.55;100187.45;100905;1313;95369;-78
2022/10/25 06:54:21;;;;;;;17.60;12.20;;;;;;;14.06;83.68;100184.54;100751;1313;138987;-77
2022/10/25 06:56:49;;;;;;;17.90;11.70;;;;;;;14.10;83.72;100184.94;100900;1294;98208;-79
2022/10/25 06:59:19;;;;;;;17.40;11.80;;;;;;;14.11;83.92;100194.33;100765;1313;139837;-76
2022/10/25 07:01:47;;;;;;;17.40;11.70;;;;;;;14.14;84.03;100192.92;101119;1292;95767;-77
2022/10/25 07:04:15;;;;;;;16.00;11.10;;;;;;;14.20;84.22;100192.35;101001;1303;95357;-76
2022/10/25 07:06:43;;;;;;;17.50;11.10;;;;;;;14.26;84.28;100191.19;100828;1313;139056;-77
2022/10/25 07:09:16;;;;;;;16.00;11.50;;;;;;;14.30;84.36;100191.35;101144;1294;97915;-78
2022/10/25 07:11:44;;;;;;;16.10;11.10;;;;;;;14.39;84.58;100189.33;100973;1289;140155;-76
2022/10/25 07:14:12;;;;;;;16.40;11.00;;;;;;;14.51;84.41;100192.88;101105;1294;96478;-77
2022/10/25 07:16:40;;;;;;;17.20;11.10;;;;;;;14.59;84.10;100192.90;101069;1300;95306;-79
2022/10/25 07:19:09;;;;;;;16.80;10.60;;;;;;;14.66;83.84;100189.37;100837;1286;139103;-79
2022/10/25 07:21:40;;;;;;;13.80;9.70;;;;;;;14.71;83.54;100188.98;100847;1306;98604;-77
2022/10/25 07:24:10;;;;;;;16.10;10.70;;;;;;;14.80;83.39;100186.04;100852;1312;139243;-78
2022/10/25 07:26:39;;;;;;;16.20;10.30;;;;;;;14.87;83.16;100186.23;101205;1284;95465;-80
2022/10/25 07:29:07;;;;;;;16.80;10.60;;;;;;;14.95;83.02;100183.91;100833;1307;139035;-79
2022/10/25 07:31:39;;;;;;;13.70;9.60;;;;;;;15.02;83.01;100178.19;101237;1304;109005;-80
2022/10/25 07:34:12;;;;;;;16.30;10.10;;;;;;;15.13;82.72;100176.08;100850;1310;97381;-78
2022/10/25 07:36:41;;;;;;;15.80;10.10;;;;;;;15.16;82.49;100171.42;100900;1309;139246;-79
2022/10/25 07:39:08;;;;;;;13.50;10.00;;;;;;;15.19;82.12;100172.19;101081;1291;96771;-79
2022/10/25 07:41:36;;;;;;;14.00;10.50;;;;;;;15.21;81.87;100176.35;100828;1287;139487;-80
2022/10/25 07:44:04;;;;;;;12.90;9.50;;;;;;;15.24;81.61;100180.52;101169;1290;108617;-79
2022/10/25 07:46:32;;;;;;;13.70;9.60;;;;;;;15.31;81.65;100179.85;100963;1310;98103;-78
2022/10/25 07:49:00;;;;;;;13.90;9.80;;;;;;;15.34;81.13;100178.96;100727;1294;138936;-79
2022/10/25 07:51:28;;;;;;;13.50;10.00;;;;;;;15.38;81.06;100177.71;100691;1297;96979;-81
2022/10/25 07:53:56;;;;;;;15.90;9.60;;;;;;;15.38;80.88;100172.67;100871;1294;138970;-79
2022/10/25 07:56:24;;;;;;;15.00;9.50;;;;;;;15.41;80.77;100169.85;100993;1306;108901;-80
2022/10/25 07:58:52;;;;;;;15.10;9.30;;;;;;;15.48;80.84;100174.16;101022;1306;98080;-80
2022/10/25 08:01:26;;;;;;;13.70;9.30;;;;;;;15.50;80.31;100170.82;101259;1290;138751;-81
2022/10/25 08:03:55;;;;;;;15.60;9.90;;;;;;;15.45;79.80;100174.65;101285;1294;96302;-82
2022/10/25 08:06:27;;;;;;;14.30;9.10;;;;;;;15.39;79.86;100174.08;101359;1290;138892;-80
2022/10/25 08:08:55;;;;;;;15.20;9.50;;;;;;;15.37;80.04;100169.69;101613;1305;107976;-81
2022/10/25 08:11:22;;;;;;;15.10;9.10;;;;;;;15.44;80.33;100172.19;101245;1295;139302;-80
2022/10/25 08:13:50;;;;;;;13.80;8.90;;;;;;;15.49;79.83;100173.01;101164;1308;106632;-81
2022/10/25 08:16:18;;;;;;;13.00;9.00;;;;;;;15.56;79.64;100174.46;101088;1291;97023;-79
2022/10/25 08:18:46;;;;;;;12.80;9.10;;;;;;;15.63;79.41;100176.80;100806;1300;139379;-80
2022/10/25 08:21:14;;;;;;;13.80;10.00;;;;;;;15.67;78.85;100174.08;101018;1290;109190;-80
2022/10/25 08:23:42;;;;;;;13.00;8.90;;;;;;;15.69;78.68;100172.17;100606;1303;139310;-81
2022/10/25 08:26:10;;;;;;;13.40;9.10;;;;;;;15.71;78.68;100175.52;100999;1312;107464;-77
2022/10/25 08:28:38;;;;;;;12.90;8.90;;;;;;;15.70;78.62;100178.77;100936;1294;95949;-81
2022/10/25 08:31:07;;;;;;;13.30;9.20;;;;;;;15.64;78.35;100180.16;101234;1284;139898;-78
2022/10/25 08:33:40;;;;;;;12.80;9.20;;;;;;;15.53;78.17;100182.15;101432;1294;106606;-80
2022/10/25 08:36:09;;;;;;;13.00;8.80;;;;;;;15.51;78.25;100184.20;101346;1310;138914;-79
2022/10/25 08:38:37;;;;;;;14.20;9.00;;;;;;;15.48;78.12;100192.41;101008;1310;107438;-81
2022/10/25 08:41:16;;;;;;;12.80;9.00;;;;;;;15.43;78.49;100194.46;100988;1313;139020;-80
2022/10/25 08:44:03;;;;;;;12.50;8.60;;;;;;;15.40;78.64;100194.59;101113;1290;95306;-80
2022/10/25 08:46:58;;;;;;;12.80;9.00;;;;;;;15.41;78.80;100198.48;101381;1298;107460;-79
2022/10/25 08:49:40;;;;;;;13.70;9.30;;;;;;;15.46;78.97;100197.15;101122;1301;96819;-81
2022/10/25 08:52:42;;;;;;;15.30;8.90;;;;;;;15.53;78.63;100198.04;101108;1291;107224;-81
2022/10/25 08:55:30;;;;;;;15.80;9.50;;;;;;;15.56;78.45;100197.58;101280;1299;138987;-81
2022/10/25 08:58:01;;;;;;;13.40;8.90;;;;;;;15.64;78.60;100196.08;101253;1294;96147;-82
2022/10/25 09:00:36;;;;;;;14.40;9.40;;;;;;;15.71;78.23;100188.36;101473;1291;138724;-81
2022/10/25 09:03:14;;;;;;;13.50;8.90;;;;;;;15.77;77.96;100186.99;101382;1312;96993;-81
2022/10/25 09:06:01;;;;;;;13.30;8.40;;;;;;;15.80;77.54;100185.80;101041;1291;139792;-79
2022/10/25 09:08:41;;;;;;;12.90;8.60;;;;;;;15.91;77.00;100184.52;101600;1287;95662;-81
2022/10/25 09:11:29;;;;;;;12.20;8.40;;;;;;;16.09;76.17;100185.77;101472;1294;138781;-82
2022/10/25 09:14:21;;;;;;;14.20;8.60;;;;;;;16.31;75.67;100191.42;101612;1304;108381;-81
2022/10/25 09:16:52;;;;;;;14.00;8.50;;;;;;;16.42;75.29;100194.55;101447;1293;97805;-80
2022/10/25 09:19:35;;;;;;;14.00;8.60;;;;;;;16.50;74.95;100198.95;101361;1312;139120;-81
2022/10/25 09:22:09;;;;;;;12.10;8.70;;;;;;;16.55;74.82;100197.80;101197;1311;96307;-80
2022/10/25 09:24:59;;;;;;;14.10;8.60;;;;;;;16.83;73.85;100197.38;101186;1292;138687;-79
2022/10/25 09:27:37;;;;;;;12.70;8.10;;;;;;;17.07;74.13;100199.65;101254;1307;107325;-77
2022/10/25 09:30:08;;;;;;;13.00;7.90;;;;;;;17.52;72.55;100198.83;100923;1294;138995;-79
2022/10/25 09:32:43;;;;;;;13.70;7.80;;;;;;;17.51;72.38;100199.98;101389;1295;107548;-78
2022/10/25 09:35:39;;;;;;;12.50;7.80;;;;;;;17.48;72.24;100204.14;101230;1311;139578;-80
2022/10/25 09:38:42;;;;;;;12.70;8.00;;;;;;;17.34;72.63;100205.11;101357;1291;95316;-82
2022/10/25 09:41:31;;;;;;;15.00;9.20;;;;;;;17.18;72.77;100207.29;101210;1290;138844;-80
2022/10/25 09:44:24;;;;;;;12.70;9.10;;;;;;;17.06;72.78;100206.67;101235;1290;97844;-80
2022/10/25 09:47:11;;;;;;;12.10;9.00;;;;;;;16.98;73.30;100208.78;101262;1307;106093;-80
2022/10/25 09:50:18;;;;;;;13.70;8.90;;;;;;;16.90;73.54;100203.98;101249;1314;95253;-81
2022/10/25 09:53:16;;;;;;;13.80;9.60;;;;;;;16.81;73.75;100203.05;101519;1301;95112;-79
2022/10/25 09:55:56;;;;;;;14.00;9.80;;;;;;;16.77;73.59;100202.19;101598;1284;108808;-78
2022/10/25 09:58:31;;;;;;;15.10;9.70;;;;;;;16.72;73.62;100205.52;101320;1294;99649;-79
2022/10/25 10:01:14;;;;;;;13.40;9.70;;;;;;;16.68;73.88;100198.52;101464;1294;138820;-82
2022/10/25 10:03:42;;;;;;;13.70;10.40;;;;;;;16.73;74.41;100200.80;101356;1312;95291;-83
2022/10/25 10:06:32;;;;;;;14.10;9.90;;;;;;;16.78;74.11;100199.79;101126;1304;139037;-82
2022/10/25 10:09:05;;;;;;;14.60;9.60;;;;;;;16.83;73.98;100198.27;101578;1290;108427;-80
2022/10/25 10:11:35;;;;;;;14.50;9.40;;;;;;;16.85;73.98;100199.91;101090;1310;139168;-78
2022/10/25 10:14:30;;;;;;;13.10;9.50;;;;;;;16.86;74.01;100197.41;101553;1308;107447;-81
2022/10/25 10:16:59;;;;;;;14.10;9.40;;;;;;;16.94;74.06;100195.35;101632;1297;95169;-80
2022/10/25 10:19:30;;;;;;;12.80;9.50;;;;;;;16.97;73.56;100195.90;101356;1293;138468;-82
2022/10/25 10:22:07;;;;;;;12.30;9.40;;;;;;;17.00;73.73;100194.84;101644;1290;106893;-82
2022/10/25 10:24:38;;;;;;;12.50;8.80;;;;;;;17.04;73.65;100194.60;101520;1312;139206;-82
2022/10/25 10:27:10;;;;;;;10.70;8.50;;;;;;;17.00;73.48;100191.98;101616;1291;107450;-78
2022/10/25 10:29:58;;;;;;;11.60;8.00;;;;;;;16.95;73.22;100193.66;101223;1297;139248;-80
2022/10/25 10:32:32;;;;;;;12.40;8.20;;;;;;;16.90;73.32;100194.52;101481;1313;96893;-77
2022/10/25 10:35:24;;;;;;;11.40;7.50;;;;;;;16.85;73.26;100193.33;101339;1290;108554;-82
2022/10/25 10:38:25;;;;;;;13.70;7.80;;;;;;;16.84;73.37;100196.79;101499;1311;99432;-79
2022/10/25 10:41:45;;;;;;;12.50;7.40;;;;;;;16.84;73.65;100191.77;101635;1309;107880;-84
2022/10/25 10:44:29;;;;;;;11.30;6.90;;;;;;;16.83;73.82;100193.23;101633;1312;95743;-78
2022/10/25 10:46:57;;;;;;;12.40;7.40;;;;;;;16.81;73.06;100191.74;101411;1312;95317;-80
2022/10/25 10:49:37;;;;;;;10.80;6.90;;;;;;;16.77;73.49;100196.82;101754;1307;140184;-82
2022/10/25 10:52:32;;;;;;;14.90;7.10;;;;;;;16.77;73.62;100198.21;101381;1303;98076;-82
2022/10/25 10:55:00;;;;;;;12.30;7.30;;;;;;;16.77;73.41;100196.59;100961;1312;138963;-82
2022/10/25 10:57:34;;;;;;;13.30;7.70;;;;;;;16.78;73.48;100194.98;101500;1306;95777;-81
2022/10/25 11:00:05;;;;;;;13.80;7.50;;;;;;;16.81;73.32;100196.77;101634;1291;140602;-82
2022/10/25 11:02:40;;;;;;;12.60;7.50;;;;;;;16.86;73.30;100198.27;101395;1307;108009;-78
2022/10/25 11:05:40;;;;;;;12.10;6.90;;;;;;;16.90;72.84;100196.27;101337;1289;98817;-81
2022/10/25 11:08:10;;;;;;;12.10;7.20;;;;;;;17.01;73.22;100196.94;101733;1291;107231;-81
2022/10/25 11:10:39;;;;;;;11.90;6.70;;;;;;;17.15;73.75;100195.80;101427;1295;95747;-81
2022/10/25 11:13:19;;;;;;;11.70;6.80;;;;;;;17.28;73.30;100195.40;101473;1297;138685;-81
2022/10/25 11:16:34;;;;;;;11.30;6.50;;;;;;;17.31;73.04;100196.81;101527;1307;108405;-81
2022/10/25 11:19:40;;;;;;;12.10;6.90;;;;;;;17.31;72.13;100199.56;101186;1301;139468;-80
2022/10/25 11:22:31;;;;;;;11.70;6.60;;;;;;;17.28;72.21;100202.97;101138;1298;107315;-80
2022/10/25 11:25:30;;;;;;;10.90;6.40;;;;;;;17.34;72.01;100202.95;101460;1290;138992;-80
2022/10/25 11:28:25;;;;;;;12.70;7.40;;;;;;;17.37;71.73;100203.35;101275;1307;95253;-80
2022/10/25 11:31:04;;;;;;;15.20;7.20;;;;;;;17.39;71.58;100203.20;101175;1297;139300;-80
2022/10/25 11:33:36;;;;;;;12.70;7.70;;;;;;;17.43;70.90;100204.77;101185;1311;98633;-80
2022/10/25 11:36:26;;;;;;;12.80;7.20;;;;;;;17.38;70.50;100203.61;101622;1303;138904;-79